sensor_id;sensor_type;location;lat;lon;timestamp;pressure;altitude;pressure_sealevel;temperature;humidity
64340;BME280;50674;53.290;-9.080;2022-07-21T00:01:50;102606.44;;;17.60;73.87
64340;BME280;50674;53.290;-9.080;2022-07-21T00:04:16;102608.78;;;17.64;73.91
64340;BME280;50674;53.290;-9.080;2022-07-21T00:06:43;102604.59;;;17.60;74.07
64340;BME280;50674;53.290;-9.080;2022-07-21T00:09:09;102603.88;;;17.58;74.08
64340;BME280;50674;53.290;-9.080;2022-07-21T00:11:35;102601.31;;;17.68;74.43
64340;BME280;50674;53.290;-9.080;2022-07-21T00:14:01;102609.91;;;17.62;73.92
64340;BME280;50674;53.290;-9.080;2022-07-21T00:16:27;102617.03;;;17.63;74.22
64340;BME280;50674;53.290;-9.080;2022-07-21T00:18:53;102616.16;;;17.62;74.05
64340;BME280;50674;53.290;-9.080;2022-07-21T00:21:19;102615.94;;;17.65;75.32
64340;BME280;50674;53.290;-9.080;2022-07-21T00:23:45;102610.75;;;17.62;74.12
64340;BME280;50674;53.290;-9.080;2022-07-21T00:26:11;102620.81;;;17.60;74.30
64340;BME280;50674;53.290;-9.080;2022-07-21T00:28:37;102623.72;;;17.57;74.55
64340;BME280;50674;53.290;-9.080;2022-07-21T00:31:04;102626.44;;;17.57;74.64
64340;BME280;50674;53.290;-9.080;2022-07-21T00:33:29;102622.44;;;17.63;74.98
64340;BME280;50674;53.290;-9.080;2022-07-21T00:35:55;102621.75;;;17.48;75.42
64340;BME280;50674;53.290;-9.080;2022-07-21T00:38:21;102612.25;;;17.42;74.89
64340;BME280;50674;53.290;-9.080;2022-07-21T00:40:46;102616.06;;;17.40;75.01
64340;BME280;50674;53.290;-9.080;2022-07-21T00:43:12;102625.13;;;17.39;74.60
64340;BME280;50674;53.290;-9.080;2022-07-21T00:45:38;102618.78;;;17.40;74.35
64340;BME280;50674;53.290;-9.080;2022-07-21T00:48:04;102621.91;;;17.34;74.54
64340;BME280;50674;53.290;-9.080;2022-07-21T00:50:32;102623.34;;;17.27;74.75
64340;BME280;50674;53.290;-9.080;2022-07-21T00:52:58;102621.50;;;17.27;74.67
64340;BME280;50674;53.290;-9.080;2022-07-21T00:55:24;102628.88;;;17.25;74.76
64340;BME280;50674;53.290;-9.080;2022-07-21T00:57:52;102622.38;;;17.28;74.57
64340;BME280;50674;53.290;-9.080;2022-07-21T01:00:24;102621.63;;;17.26;74.74
64340;BME280;50674;53.290;-9.080;2022-07-21T01:02:50;102622.72;;;17.23;74.39
64340;BME280;50674;53.290;-9.080;2022-07-21T01:05:17;102624.69;;;17.21;74.48
64340;BME280;50674;53.290;-9.080;2022-07-21T01:07:48;102620.38;;;17.18;74.70
64340;BME280;50674;53.290;-9.080;2022-07-21T01:10:15;102621.34;;;17.17;74.65
64340;BME280;50674;53.290;-9.080;2022-07-21T01:12:43;102625.13;;;17.15;74.48
64340;BME280;50674;53.290;-9.080;2022-07-21T01:15:11;102615.75;;;17.08;74.66
64340;BME280;50674;53.290;-9.080;2022-07-21T01:17:39;102628.59;;;17.17;74.37
64340;BME280;50674;53.290;-9.080;2022-07-21T01:20:11;102616.91;;;17.16;74.38
64340;BME280;50674;53.290;-9.080;2022-07-21T01:22:40;102610.00;;;17.12;74.49
64340;BME280;50674;53.290;-9.080;2022-07-21T01:25:07;102615.97;;;17.05;74.79
64340;BME280;50674;53.290;-9.080;2022-07-21T01:27:33;102609.94;;;17.01;74.94
64340;BME280;50674;53.290;-9.080;2022-07-21T01:32:25;102612.56;;;17.03;74.82
64340;BME280;50674;53.290;-9.080;2022-07-21T01:34:51;102608.53;;;17.08;74.87
64340;BME280;50674;53.290;-9.080;2022-07-21T01:37:28;102622.66;;;17.12;74.77
64340;BME280;50674;53.290;-9.080;2022-07-21T01:39:54;102618.38;;;17.09;74.58
64340;BME280;50674;53.290;-9.080;2022-07-21T01:42:40;102616.84;;;17.05;74.56
64340;BME280;50674;53.290;-9.080;2022-07-21T01:45:07;102616.63;;;17.08;74.56
64340;BME280;50674;53.290;-9.080;2022-07-21T01:47:33;102622.88;;;17.09;74.59
64340;BME280;50674;53.290;-9.080;2022-07-21T01:50:00;102625.69;;;17.07;74.94
64340;BME280;50674;53.290;-9.080;2022-07-21T01:52:27;102620.50;;;17.17;75.31
64340;BME280;50674;53.290;-9.080;2022-07-21T01:54:53;102614.56;;;17.12;74.63
64340;BME280;50674;53.290;-9.080;2022-07-21T01:57:18;102610.50;;;17.06;74.69
64340;BME280;50674;53.290;-9.080;2022-07-21T01:59:44;102608.47;;;16.97;75.13
64340;BME280;50674;53.290;-9.080;2022-07-21T02:02:10;102611.91;;;16.99;74.87
64340;BME280;50674;53.290;-9.080;2022-07-21T02:04:36;102612.88;;;16.98;75.09
64340;BME280;50674;53.290;-9.080;2022-07-21T02:07:02;102604.03;;;16.96;75.22
64340;BME280;50674;53.290;-9.080;2022-07-21T02:09:28;102597.59;;;16.86;75.49
64340;BME280;50674;53.290;-9.080;2022-07-21T02:11:54;102602.47;;;16.81;75.45
64340;BME280;50674;53.290;-9.080;2022-07-21T02:14:21;102607.09;;;16.79;75.58
64340;BME280;50674;53.290;-9.080;2022-07-21T02:16:47;102613.69;;;16.87;75.16
64340;BME280;50674;53.290;-9.080;2022-07-21T02:19:13;102605.25;;;16.79;75.52
64340;BME280;50674;53.290;-9.080;2022-07-21T02:21:39;102610.44;;;16.82;75.59
64340;BME280;50674;53.290;-9.080;2022-07-21T02:24:05;102606.53;;;16.86;75.81
64340;BME280;50674;53.290;-9.080;2022-07-21T02:26:31;102609.88;;;16.90;75.46
64340;BME280;50674;53.290;-9.080;2022-07-21T02:28:57;102614.31;;;16.91;75.65
64340;BME280;50674;53.290;-9.080;2022-07-21T02:31:23;102619.47;;;16.94;75.41
64340;BME280;50674;53.290;-9.080;2022-07-21T02:33:49;102622.16;;;16.94;75.51
64340;BME280;50674;53.290;-9.080;2022-07-21T02:36:14;102619.47;;;16.94;75.56
64340;BME280;50674;53.290;-9.080;2022-07-21T02:38:40;102618.25;;;16.98;75.64
64340;BME280;50674;53.290;-9.080;2022-07-21T02:41:06;102617.53;;;16.96;75.72
64340;BME280;50674;53.290;-9.080;2022-07-21T02:43:32;102611.16;;;16.97;75.64
64340;BME280;50674;53.290;-9.080;2022-07-21T02:45:58;102617.53;;;16.96;75.61
64340;BME280;50674;53.290;-9.080;2022-07-21T02:48:24;102611.50;;;16.92;75.61
64340;BME280;50674;53.290;-9.080;2022-07-21T02:50:49;102606.22;;;16.91;76.02
64340;BME280;50674;53.290;-9.080;2022-07-21T02:53:17;102608.94;;;16.91;76.14
64340;BME280;50674;53.290;-9.080;2022-07-21T02:55:49;102610.44;;;16.95;76.17
64340;BME280;50674;53.290;-9.080;2022-07-21T03:00:47;102602.56;;;16.92;76.12
64340;BME280;50674;53.290;-9.080;2022-07-21T03:03:13;102616.03;;;16.92;76.28
64340;BME280;50674;53.290;-9.080;2022-07-21T03:05:39;102614.72;;;16.98;76.47
64340;BME280;50674;53.290;-9.080;2022-07-21T03:08:07;102613.91;;;16.84;76.49
64340;BME280;50674;53.290;-9.080;2022-07-21T03:10:33;102614.97;;;16.82;76.57
64340;BME280;50674;53.290;-9.080;2022-07-21T03:12:59;102606.16;;;16.80;76.48
64340;BME280;50674;53.290;-9.080;2022-07-21T03:15:25;102600.75;;;16.80;76.64
64340;BME280;50674;53.290;-9.080;2022-07-21T03:17:55;102608.09;;;16.78;76.65
64340;BME280;50674;53.290;-9.080;2022-07-21T03:20:28;102598.50;;;16.74;76.92
64340;BME280;50674;53.290;-9.080;2022-07-21T03:22:55;102605.38;;;16.78;76.77
64340;BME280;50674;53.290;-9.080;2022-07-21T03:25:21;102605.59;;;16.87;76.78
64340;BME280;50674;53.290;-9.080;2022-07-21T03:27:47;102613.47;;;16.78;76.53
64340;BME280;50674;53.290;-9.080;2022-07-21T03:30:14;102604.84;;;16.73;76.62
64340;BME280;50674;53.290;-9.080;2022-07-21T03:32:40;102603.88;;;16.74;76.18
64340;BME280;50674;53.290;-9.080;2022-07-21T03:35:08;102608.09;;;16.65;76.38
64340;BME280;50674;53.290;-9.080;2022-07-21T03:37:43;102594.28;;;16.57;76.39
64340;BME280;50674;53.290;-9.080;2022-07-21T03:40:12;102589.75;;;16.57;76.30
64340;BME280;50674;53.290;-9.080;2022-07-21T03:42:38;102595.38;;;16.54;76.00
64340;BME280;50674;53.290;-9.080;2022-07-21T03:45:05;102593.88;;;16.50;76.47
64340;BME280;50674;53.290;-9.080;2022-07-21T03:47:31;102589.78;;;16.44;76.21
64340;BME280;50674;53.290;-9.080;2022-07-21T03:49:57;102593.31;;;16.45;76.48
64340;BME280;50674;53.290;-9.080;2022-07-21T03:52:23;102592.47;;;16.44;76.26
64340;BME280;50674;53.290;-9.080;2022-07-21T03:54:49;102597.97;;;16.43;76.39
64340;BME280;50674;53.290;-9.080;2022-07-21T03:57:14;102591.94;;;16.39;76.42
64340;BME280;50674;53.290;-9.080;2022-07-21T03:59:40;102597.09;;;16.42;76.58
64340;BME280;50674;53.290;-9.080;2022-07-21T04:02:06;102600.03;;;16.39;76.51
64340;BME280;50674;53.290;-9.080;2022-07-21T04:04:32;102601.75;;;16.40;76.63
64340;BME280;50674;53.290;-9.080;2022-07-21T04:06:58;102605.31;;;16.41;76.60
64340;BME280;50674;53.290;-9.080;2022-07-21T04:09:23;102603.81;;;16.37;76.99
64340;BME280;50674;53.290;-9.080;2022-07-21T04:11:49;102603.81;;;16.37;77.04
64340;BME280;50674;53.290;-9.080;2022-07-21T04:14:15;102608.84;;;16.41;76.71
64340;BME280;50674;53.290;-9.080;2022-07-21T04:16:41;102610.16;;;16.36;76.88
64340;BME280;50674;53.290;-9.080;2022-07-21T04:19:07;102610.25;;;16.34;77.04
64340;BME280;50674;53.290;-9.080;2022-07-21T04:21:33;102606.19;;;16.29;77.28
64340;BME280;50674;53.290;-9.080;2022-07-21T04:23:59;102615.13;;;16.29;77.34
64340;BME280;50674;53.290;-9.080;2022-07-21T04:26:25;102604.69;;;16.25;77.48
64340;BME280;50674;53.290;-9.080;2022-07-21T04:28:54;102606.41;;;16.26;77.43
64340;BME280;50674;53.290;-9.080;2022-07-21T04:31:20;102597.53;;;16.24;77.66
64340;BME280;50674;53.290;-9.080;2022-07-21T04:33:47;102601.22;;;16.23;77.82
64340;BME280;50674;53.290;-9.080;2022-07-21T04:36:13;102602.19;;;16.21;77.70
64340;BME280;50674;53.290;-9.080;2022-07-21T04:38:39;102602.06;;;16.23;77.70
64340;BME280;50674;53.290;-9.080;2022-07-21T04:41:05;102606.41;;;16.26;77.91
64340;BME280;50674;53.290;-9.080;2022-07-21T04:43:30;102602.06;;;16.23;77.94
64340;BME280;50674;53.290;-9.080;2022-07-21T04:45:56;102602.19;;;16.21;78.16
64340;BME280;50674;53.290;-9.080;2022-07-21T04:48:22;102597.53;;;16.24;78.03
64340;BME280;50674;53.290;-9.080;2022-07-21T04:50:48;102592.41;;;16.20;78.18
64340;BME280;50674;53.290;-9.080;2022-07-21T04:53:14;102602.19;;;16.21;78.15
64340;BME280;50674;53.290;-9.080;2022-07-21T04:55:39;102597.78;;;16.20;78.47
64340;BME280;50674;53.290;-9.080;2022-07-21T04:58:05;102580.84;;;16.18;78.26
64340;BME280;50674;53.290;-9.080;2022-07-21T05:00:31;102605.31;;;16.28;78.34
64340;BME280;50674;53.290;-9.080;2022-07-21T05:02:57;102595.50;;;16.27;78.51
64340;BME280;50674;53.290;-9.080;2022-07-21T05:05:23;102599.03;;;16.28;78.46
64340;BME280;50674;53.290;-9.080;2022-07-21T05:07:48;102588.19;;;16.29;78.52
64340;BME280;50674;53.290;-9.080;2022-07-21T05:10:16;102595.50;;;16.27;78.46
64340;BME280;50674;53.290;-9.080;2022-07-21T05:12:43;102593.56;;;16.29;78.45
64340;BME280;50674;53.290;-9.080;2022-07-21T05:15:09;102604.22;;;16.31;78.52
64340;BME280;50674;53.290;-9.080;2022-07-21T05:17:36;102601.88;;;16.26;78.44
64340;BME280;50674;53.290;-9.080;2022-07-21T05:20:04;102598.97;;;16.29;78.41
64340;BME280;50674;53.290;-9.080;2022-07-21T05:22:31;102597.88;;;16.32;78.51
64340;BME280;50674;53.290;-9.080;2022-07-21T05:24:58;102597.88;;;16.32;78.45
64340;BME280;50674;53.290;-9.080;2022-07-21T05:27:24;102593.22;;;16.34;78.46
64340;BME280;50674;53.290;-9.080;2022-07-21T05:29:49;102603.69;;;16.38;78.39
64340;BME280;50674;53.290;-9.080;2022-07-21T05:32:15;102605.63;;;16.36;78.50
64340;BME280;50674;53.290;-9.080;2022-07-21T05:34:41;102605.00;;;16.33;78.69
64340;BME280;50674;53.290;-9.080;2022-07-21T05:37:07;102595.94;;;16.34;78.44
64340;BME280;50674;53.290;-9.080;2022-07-21T05:39:33;102603.91;;;16.35;78.56
64340;BME280;50674;53.290;-9.080;2022-07-21T05:41:59;102608.22;;;16.38;78.54
64340;BME280;50674;53.290;-9.080;2022-07-21T05:44:24;102612.88;;;16.36;78.49
64340;BME280;50674;53.290;-9.080;2022-07-21T05:46:50;102611.88;;;16.37;78.33
64340;BME280;50674;53.290;-9.080;2022-07-21T05:52:03;102612.88;;;16.36;78.77
64340;BME280;50674;53.290;-9.080;2022-07-21T05:54:29;102607.03;;;16.29;78.70
64340;BME280;50674;53.290;-9.080;2022-07-21T05:56:54;102604.22;;;16.31;78.46
64340;BME280;50674;53.290;-9.080;2022-07-21T05:59:20;102613.94;;;16.33;78.41
64340;BME280;50674;53.290;-9.080;2022-07-21T06:01:46;102613.94;;;16.33;78.42
64340;BME280;50674;53.290;-9.080;2022-07-21T06:04:11;102609.81;;;16.28;78.62
64340;BME280;50674;53.290;-9.080;2022-07-21T06:06:37;102611.56;;;16.29;78.67
64340;BME280;50674;53.290;-9.080;2022-07-21T06:09:02;102618.03;;;16.26;78.65
64340;BME280;50674;53.290;-9.080;2022-07-21T06:11:28;102616.09;;;16.28;78.68
64340;BME280;50674;53.290;-9.080;2022-07-21T06:13:54;102618.47;;;16.33;78.58
64340;BME280;50674;53.290;-9.080;2022-07-21T06:16:39;102636.66;;;16.42;78.53
64340;BME280;50674;53.290;-9.080;2022-07-21T06:19:06;102632.78;;;16.46;78.57
64340;BME280;50674;53.290;-9.080;2022-07-21T06:21:34;102629.13;;;16.47;78.47
64340;BME280;50674;53.290;-9.080;2022-07-21T06:24:01;102634.06;;;16.53;78.58
64340;BME280;50674;53.290;-9.080;2022-07-21T06:26:27;102637.84;;;16.63;78.34
64340;BME280;50674;53.290;-9.080;2022-07-21T06:28:53;102633.44;;;16.62;78.14
64340;BME280;50674;53.290;-9.080;2022-07-21T06:33:45;102635.56;;;16.70;78.42
64340;BME280;50674;53.290;-9.080;2022-07-21T06:36:11;102631.91;;;16.71;78.41
64340;BME280;50674;53.290;-9.080;2022-07-21T06:38:37;102640.56;;;16.76;78.40
64340;BME280;50674;53.290;-9.080;2022-07-21T06:41:03;102644.53;;;16.83;78.14
64340;BME280;50674;53.290;-9.080;2022-07-21T06:43:29;102651.44;;;16.87;78.08
64340;BME280;50674;53.290;-9.080;2022-07-21T06:45:55;102646.22;;;16.97;77.53
64340;BME280;50674;53.290;-9.080;2022-07-21T06:48:21;102640.63;;;17.00;77.76
64340;BME280;50674;53.290;-9.080;2022-07-21T06:50:50;102642.97;;;17.05;77.97
64340;BME280;50674;53.290;-9.080;2022-07-21T06:53:16;102645.97;;;17.13;77.95
64340;BME280;50674;53.290;-9.080;2022-07-21T06:55:42;102637.13;;;17.11;77.19
64340;BME280;50674;53.290;-9.080;2022-07-21T06:58:12;102640.97;;;17.20;76.97
64340;BME280;50674;53.290;-9.080;2022-07-21T07:00:37;102631.66;;;17.24;76.90
64340;BME280;50674;53.290;-9.080;2022-07-21T07:03:03;102635.53;;;17.32;76.58
64340;BME280;50674;53.290;-9.080;2022-07-21T07:05:30;102640.19;;;17.54;76.20
64340;BME280;50674;53.290;-9.080;2022-07-21T07:07:56;102648.03;;;17.57;76.21
64340;BME280;50674;53.290;-9.080;2022-07-21T07:10:22;102643.69;;;17.67;75.76
64340;BME280;50674;53.290;-9.080;2022-07-21T07:12:48;102639.34;;;17.78;75.32
64340;BME280;50674;53.290;-9.080;2022-07-21T07:15:14;102640.69;;;17.83;75.23
64340;BME280;50674;53.290;-9.080;2022-07-21T07:17:40;102639.13;;;17.92;74.88
64340;BME280;50674;53.290;-9.080;2022-07-21T07:20:06;102637.44;;;17.91;74.35
64340;BME280;50674;53.290;-9.080;2022-07-21T07:22:33;102639.13;;;17.92;73.96
64340;BME280;50674;53.290;-9.080;2022-07-21T07:24:59;102635.69;;;17.90;73.79
64340;BME280;50674;53.290;-9.080;2022-07-21T07:27:25;102639.41;;;18.00;73.16
64340;BME280;50674;53.290;-9.080;2022-07-21T07:29:51;102634.63;;;18.04;72.89
64340;BME280;50674;53.290;-9.080;2022-07-21T07:32:17;102640.41;;;18.10;72.54
64340;BME280;50674;53.290;-9.080;2022-07-21T07:34:42;102647.66;;;18.10;72.54
64340;BME280;50674;53.290;-9.080;2022-07-21T07:37:08;102644.22;;;18.19;72.12
64340;BME280;50674;53.290;-9.080;2022-07-21T07:39:34;102642.63;;;18.17;71.89
64340;BME280;50674;53.290;-9.080;2022-07-21T07:42:02;102649.03;;;18.27;71.49
64340;BME280;50674;53.290;-9.080;2022-07-21T07:44:27;102649.56;;;18.32;71.56
64340;BME280;50674;53.290;-9.080;2022-07-21T07:46:53;102639.84;;;18.29;71.65
64340;BME280;50674;53.290;-9.080;2022-07-21T07:49:19;102635.78;;;18.35;71.63
64340;BME280;50674;53.290;-9.080;2022-07-21T07:51:45;102642.41;;;18.42;71.33
64340;BME280;50674;53.290;-9.080;2022-07-21T07:54:11;102645.63;;;18.47;71.00
64340;BME280;50674;53.290;-9.080;2022-07-21T07:56:37;102645.50;;;18.49;70.27
64340;BME280;50674;53.290;-9.080;2022-07-21T07:59:03;102647.81;;;18.42;70.62
64340;BME280;50674;53.290;-9.080;2022-07-21T08:01:28;102647.72;;;18.55;70.23
64340;BME280;50674;53.290;-9.080;2022-07-21T08:03:54;102647.97;;;18.63;70.16
64340;BME280;50674;53.290;-9.080;2022-07-21T08:06:22;102648.59;;;18.67;70.06
64340;BME280;50674;53.290;-9.080;2022-07-21T08:08:47;102660.53;;;18.75;69.55
64340;BME280;50674;53.290;-9.080;2022-07-21T08:11:13;102651.28;;;18.67;69.31
64340;BME280;50674;53.290;-9.080;2022-07-21T08:13:39;102662.53;;;18.73;69.27
64340;BME280;50674;53.290;-9.080;2022-07-21T08:16:05;102658.97;;;18.73;68.98
64340;BME280;50674;53.290;-9.080;2022-07-21T08:18:31;102656.50;;;18.81;68.87
64340;BME280;50674;53.290;-9.080;2022-07-21T08:20:57;102654.75;;;18.80;68.92
64340;BME280;50674;53.290;-9.080;2022-07-21T08:23:23;102650.56;;;18.76;68.57
64340;BME280;50674;53.290;-9.080;2022-07-21T08:25:49;102652.66;;;18.83;68.28
64340;BME280;50674;53.290;-9.080;2022-07-21T08:28:15;102660.19;;;18.91;68.46
64340;BME280;50674;53.290;-9.080;2022-07-21T08:30:41;102659.28;;;18.91;68.09
64340;BME280;50674;53.290;-9.080;2022-07-21T08:33:07;102661.75;;;18.94;68.40
64340;BME280;50674;53.290;-9.080;2022-07-21T08:35:33;102655.97;;;18.98;68.57
64340;BME280;50674;53.290;-9.080;2022-07-21T08:38:04;102666.78;;;18.98;68.57
64340;BME280;50674;53.290;-9.080;2022-07-21T08:40:33;102666.66;;;19.11;68.48
64340;BME280;50674;53.290;-9.080;2022-07-21T08:42:59;102668.00;;;19.05;68.32
64340;BME280;50674;53.290;-9.080;2022-07-21T08:45:26;102659.56;;;18.99;68.02
64340;BME280;50674;53.290;-9.080;2022-07-21T08:47:55;102666.78;;;18.98;67.77
64340;BME280;50674;53.290;-9.080;2022-07-21T08:50:26;102667.69;;;18.99;67.39
64340;BME280;50674;53.290;-9.080;2022-07-21T08:52:52;102666.78;;;18.98;67.44
64340;BME280;50674;53.290;-9.080;2022-07-21T08:55:18;102669.38;;;19.00;67.44
64340;BME280;50674;53.290;-9.080;2022-07-21T08:57:44;102665.59;;;19.02;67.67
64340;BME280;50674;53.290;-9.080;2022-07-21T09:00:10;102666.91;;;19.08;67.95
64340;BME280;50674;53.290;-9.080;2022-07-21T09:02:38;102666.53;;;19.13;67.49
64340;BME280;50674;53.290;-9.080;2022-07-21T09:05:06;102658.19;;;19.04;67.30
64340;BME280;50674;53.290;-9.080;2022-07-21T09:07:49;102665.19;;;19.07;65.66
64340;BME280;50674;53.290;-9.080;2022-07-21T09:10:21;102665.44;;;19.15;66.70
64340;BME280;50674;53.290;-9.080;2022-07-21T09:12:53;102667.63;;;19.21;66.29
64340;BME280;50674;53.290;-9.080;2022-07-21T09:15:21;102673.16;;;19.20;66.38
64340;BME280;50674;53.290;-9.080;2022-07-21T09:18:11;102667.63;;;19.21;65.66
64340;BME280;50674;53.290;-9.080;2022-07-21T09:20:46;102663.69;;;19.25;65.25
64340;BME280;50674;53.290;-9.080;2022-07-21T09:23:14;102666.00;;;19.30;65.98
64340;BME280;50674;53.290;-9.080;2022-07-21T09:25:46;102665.38;;;19.38;66.04
64340;BME280;50674;53.290;-9.080;2022-07-21T09:30:57;102658.84;;;19.40;65.36
64340;BME280;50674;53.290;-9.080;2022-07-21T09:33:44;102661.03;;;19.46;65.12
64340;BME280;50674;53.290;-9.080;2022-07-21T09:36:13;102664.13;;;19.42;65.14
64340;BME280;50674;53.290;-9.080;2022-07-21T09:41:15;102644.25;;;19.64;63.20
64340;BME280;50674;53.290;-9.080;2022-07-21T09:43:47;102660.00;;;19.70;61.94
64340;BME280;50674;53.290;-9.080;2022-07-21T09:46:22;102660.91;;;19.91;62.84
64340;BME280;50674;53.290;-9.080;2022-07-21T09:48:53;102655.28;;;20.04;61.57
64340;BME280;50674;53.290;-9.080;2022-07-21T09:51:48;102656.25;;;20.24;59.20
64340;BME280;50674;53.290;-9.080;2022-07-21T09:54:14;102648.97;;;20.45;61.52
64340;BME280;50674;53.290;-9.080;2022-07-21T09:56:42;102651.66;;;20.66;60.02
64340;BME280;50674;53.290;-9.080;2022-07-21T09:59:10;102651.69;;;20.76;59.49
64340;BME280;50674;53.290;-9.080;2022-07-21T10:01:37;102650.03;;;20.94;58.89
64340;BME280;50674;53.290;-9.080;2022-07-21T10:04:05;102651.81;;;21.15;58.81
64340;BME280;50674;53.290;-9.080;2022-07-21T10:06:34;102649.22;;;21.13;57.58
64340;BME280;50674;53.290;-9.080;2022-07-21T10:09:03;102643.59;;;21.65;56.56
64340;BME280;50674;53.290;-9.080;2022-07-21T10:11:29;102640.13;;;22.11;55.82
64340;BME280;50674;53.290;-9.080;2022-07-21T10:13:55;102635.50;;;22.41;50.55
64340;BME280;50674;53.290;-9.080;2022-07-21T10:16:21;102634.00;;;22.56;55.19
64340;BME280;50674;53.290;-9.080;2022-07-21T10:18:52;102636.22;;;23.08;52.80
64340;BME280;50674;53.290;-9.080;2022-07-21T10:21:35;102629.72;;;23.72;50.65
64340;BME280;50674;53.290;-9.080;2022-07-21T10:24:03;102637.38;;;24.38;49.04
64340;BME280;50674;53.290;-9.080;2022-07-21T10:26:30;102636.78;;;24.87;49.75
64340;BME280;50674;53.290;-9.080;2022-07-21T10:28:55;102635.38;;;24.75;41.49
64340;BME280;50674;53.290;-9.080;2022-07-21T10:31:24;102634.78;;;24.55;46.71
64340;BME280;50674;53.290;-9.080;2022-07-21T10:33:54;102619.16;;;24.39;48.39
64340;BME280;50674;53.290;-9.080;2022-07-21T10:41:55;102625.34;;;24.23;46.00
64340;BME280;50674;53.290;-9.080;2022-07-21T10:47:19;102616.56;;;24.11;46.58
64340;BME280;50674;53.290;-9.080;2022-07-21T10:49:58;102623.50;;;24.32;46.32
64340;BME280;50674;53.290;-9.080;2022-07-21T10:55:21;102621.22;;;24.79;45.01
64340;BME280;50674;53.290;-9.080;2022-07-21T10:58:26;102612.31;;;25.20;44.46
64340;BME280;50674;53.290;-9.080;2022-07-21T11:03:42;102610.16;;;24.81;45.63
64340;BME280;50674;53.290;-9.080;2022-07-21T11:06:21;102613.38;;;24.42;43.68
64340;BME280;50674;53.290;-9.080;2022-07-21T11:08:53;102607.91;;;24.16;46.39
64340;BME280;50674;53.290;-9.080;2022-07-21T11:11:24;102607.22;;;23.70;44.83
64340;BME280;50674;53.290;-9.080;2022-07-21T11:14:18;102607.75;;;23.20;46.80
64340;BME280;50674;53.290;-9.080;2022-07-21T11:22:15;102603.63;;;22.23;49.75
64340;BME280;50674;53.290;-9.080;2022-07-21T11:24:47;102609.19;;;22.12;50.65
64340;BME280;50674;53.290;-9.080;2022-07-21T11:27:18;102607.09;;;21.96;51.25
64340;BME280;50674;53.290;-9.080;2022-07-21T11:29:46;102607.38;;;21.84;51.10
64340;BME280;50674;53.290;-9.080;2022-07-21T11:32:13;102612.00;;;21.73;51.22
64340;BME280;50674;53.290;-9.080;2022-07-21T11:37:38;102607.00;;;21.40;51.89
64340;BME280;50674;53.290;-9.080;2022-07-21T11:40:14;102613.56;;;21.37;52.23
64340;BME280;50674;53.290;-9.080;2022-07-21T11:42:41;102613.00;;;21.34;52.32
64340;BME280;50674;53.290;-9.080;2022-07-21T11:45:08;102613.94;;;21.23;52.45
64340;BME280;50674;53.290;-9.080;2022-07-21T11:47:34;102609.38;;;21.14;52.67
64340;BME280;50674;53.290;-9.080;2022-07-21T11:50:02;102618.78;;;21.10;53.41
64340;BME280;50674;53.290;-9.080;2022-07-21T11:52:31;102616.75;;;21.02;53.31
64340;BME280;50674;53.290;-9.080;2022-07-21T11:59:52;102605.50;;;21.07;53.50
64340;BME280;50674;53.290;-9.080;2022-07-21T12:02:29;102606.50;;;21.15;53.21
64340;BME280;50674;53.290;-9.080;2022-07-21T12:05:07;102610.13;;;21.35;53.91
64340;BME280;50674;53.290;-9.080;2022-07-21T12:07:39;102602.69;;;21.37;52.48
64340;BME280;50674;53.290;-9.080;2022-07-21T12:10:10;102599.84;;;21.48;54.05
64340;BME280;50674;53.290;-9.080;2022-07-21T12:12:38;102603.16;;;21.62;53.43
64340;BME280;50674;53.290;-9.080;2022-07-21T12:17:41;102606.41;;;21.75;53.18
64340;BME280;50674;53.290;-9.080;2022-07-21T12:20:08;102595.38;;;21.77;53.32
64340;BME280;50674;53.290;-9.080;2022-07-21T12:22:42;102597.69;;;21.81;52.63
64340;BME280;50674;53.290;-9.080;2022-07-21T12:25:13;102593.22;;;21.80;52.49
64340;BME280;50674;53.290;-9.080;2022-07-21T12:27:42;102588.06;;;21.87;51.74
64340;BME280;50674;53.290;-9.080;2022-07-21T12:30:11;102584.19;;;21.99;52.04
64340;BME280;50674;53.290;-9.080;2022-07-21T12:33:07;102586.66;;;21.83;52.46
64340;BME280;50674;53.290;-9.080;2022-07-21T12:35:34;102590.66;;;21.79;52.74
64340;BME280;50674;53.290;-9.080;2022-07-21T12:38:09;102588.22;;;21.75;54.12
64340;BME280;50674;53.290;-9.080;2022-07-21T12:40:37;102586.66;;;21.92;53.05
64340;BME280;50674;53.290;-9.080;2022-07-21T12:43:15;102583.47;;;21.97;53.35
64340;BME280;50674;53.290;-9.080;2022-07-21T12:45:55;102584.31;;;22.07;52.71
64340;BME280;50674;53.290;-9.080;2022-07-21T12:48:26;102589.44;;;22.30;52.54
64340;BME280;50674;53.290;-9.080;2022-07-21T12:51:20;102589.88;;;22.25;51.98
64340;BME280;50674;53.290;-9.080;2022-07-21T12:53:48;102591.84;;;22.33;51.97
64340;BME280;50674;53.290;-9.080;2022-07-21T12:56:17;102592.97;;;22.40;51.54
64340;BME280;50674;53.290;-9.080;2022-07-21T12:58:44;102589.44;;;22.30;51.58
64340;BME280;50674;53.290;-9.080;2022-07-21T13:01:10;102590.00;;;22.23;50.92
64340;BME280;50674;53.290;-9.080;2022-07-21T13:03:36;102590.31;;;22.11;51.99
64340;BME280;50674;53.290;-9.080;2022-07-21T13:06:04;102595.38;;;21.96;51.92
64340;BME280;50674;53.290;-9.080;2022-07-21T13:08:32;102580.03;;;22.05;52.26
64340;BME280;50674;53.290;-9.080;2022-07-21T13:10:58;102579.88;;;22.16;52.17
64340;BME280;50674;53.290;-9.080;2022-07-21T13:13:24;102580.81;;;22.34;51.29
64340;BME280;50674;53.290;-9.080;2022-07-21T13:15:50;102570.50;;;22.28;51.70
64340;BME280;50674;53.290;-9.080;2022-07-21T13:18:15;102579.78;;;22.35;51.19
64340;BME280;50674;53.290;-9.080;2022-07-21T13:20:41;102575.34;;;22.44;50.51
64340;BME280;50674;53.290;-9.080;2022-07-21T13:23:06;102567.66;;;22.57;50.45
64340;BME280;50674;53.290;-9.080;2022-07-21T13:25:33;102570.94;;;22.88;49.45
64340;BME280;50674;53.290;-9.080;2022-07-21T13:28:00;102563.91;;;23.13;50.01
64340;BME280;50674;53.290;-9.080;2022-07-21T13:30:26;102569.69;;;23.10;51.24